Rolling Hills Estates, California
Current Conditions -  °F | °C
As of 1:53 PM on Thursday 27 Nov 2014 (Local Time) from KHHR Reporting Station
Clear Clear  
Wind Chill: 82°   Ceiling: Unl
Heat Index: 82°   Visibility: 10mi
Dew Point: 42°   Wind: 7mph
Humidity: 24%   Direction: 290°WNW
Pressure: 30.01"   Gusts: NA
Location:  33.7553°N, 118.364°W
Report Text: KHHR 272153Z 29006KT 10SM CLR 28/06 A3001 RMK AO2 SLP160 T02780056
Loading
Personal Weather Stations






























Interactive Weather Map New forecast layout! Learn more

10-Day Weather Forecast

Advertisements
Track Severe Weather on mobile